createdAt,value
2018-05-14T00:01:04.810Z,79.40
2018-05-14T00:03:31.013Z,79.30
2018-05-14T00:05:57.947Z,80.20
2018-05-14T00:08:24.910Z,80.20
2018-05-14T00:10:51.103Z,80.20
2018-05-14T00:13:18.803Z,81.10
2018-05-14T00:15:44.994Z,81.00
2018-05-14T00:18:11.215Z,81.50
2018-05-14T00:20:38.188Z,82.00
2018-05-14T00:23:05.991Z,82.10
2018-05-14T00:25:32.195Z,82.10
2018-05-14T00:27:59.196Z,82.50
2018-05-14T00:30:26.199Z,83.60
2018-05-14T00:32:53.188Z,83.50
2018-05-14T00:35:19.394Z,83.60
2018-05-14T00:37:45.623Z,83.90
2018-05-14T00:40:11.818Z,84.30
2018-05-14T00:42:38.787Z,84.80
2018-05-14T00:45:04.978Z,84.60
2018-05-14T00:47:31.212Z,85.30
2018-05-14T00:49:58.146Z,86.40
2018-05-14T00:52:25.111Z,86.50
2018-05-14T00:55:04.283Z,87.30
2018-05-14T00:57:30.506Z,87.20
2018-05-14T00:59:57.652Z,88.00
2018-05-14T01:02:23.854Z,87.30
2018-05-14T01:04:51.794Z,88.60
2018-05-14T01:07:18.522Z,87.90
2018-05-14T01:09:46.150Z,88.80
2018-05-14T01:12:12.925Z,88.80
2018-05-14T01:14:39.268Z,89.40
2018-05-14T01:17:05.491Z,90.20
2018-05-14T01:19:31.720Z,90.20
2018-05-14T01:21:57.927Z,90.40
2018-05-14T01:24:24.691Z,90.60
2018-05-14T01:26:50.896Z,90.80
2018-05-14T01:29:18.021Z,91.00
2018-05-14T01:31:44.227Z,91.10
2018-05-14T01:34:11.187Z,91.80
2018-05-14T01:36:37.387Z,91.80
2018-05-14T01:39:04.374Z,92.20
2018-05-14T01:41:30.572Z,92.20
2018-05-14T01:43:57.531Z,92.80
2018-05-14T01:46:25.517Z,93.00
2018-05-14T01:48:53.260Z,92.90
2018-05-14T01:51:20.197Z,93.60
2018-05-14T01:53:46.416Z,93.50
2018-05-14T01:56:12.729Z,93.70
2018-05-14T01:58:38.947Z,94.10
2018-05-14T02:01:05.150Z,94.70
2018-05-14T02:03:31.367Z,94.70
2018-05-14T02:05:57.559Z,95.00
2018-05-14T02:08:23.847Z,95.30
2018-05-14T02:10:50.046Z,95.40
2018-05-14T02:13:16.318Z,95.60
2018-05-14T02:15:42.519Z,96.20
2018-05-14T02:18:08.734Z,96.20
2018-05-14T02:20:35.675Z,97.40
2018-05-14T02:23:02.630Z,97.60
2018-05-14T02:25:29.571Z,98.00
2018-05-14T02:27:56.538Z,98.00
2018-05-14T02:30:23.574Z,98.00
2018-05-14T02:32:49.795Z,98.40
2018-05-14T02:35:16.736Z,99.50
2018-05-14T02:37:43.700Z,99.90
2018-05-14T02:40:09.892Z,99.90
2018-05-14T02:42:37.595Z,99.90
2018-05-14T02:45:03.835Z,99.90
2018-05-14T02:47:30.059Z,99.90
2018-05-14T02:50:03.310Z,99.90
2018-05-14T02:52:29.527Z,99.90
2018-05-14T02:54:55.735Z,99.90
2018-05-14T02:57:21.963Z,99.90
2018-05-14T02:59:48.187Z,99.90
2018-05-14T03:02:14.392Z,99.90
2018-05-14T03:04:40.620Z,99.90
2018-05-14T03:07:06.822Z,99.90
2018-05-14T03:09:33.786Z,99.90
2018-05-14T03:11:59.982Z,99.90
2018-05-14T03:14:26.217Z,99.90
2018-05-14T03:16:53.166Z,99.90
2018-05-14T03:19:20.135Z,99.90
2018-05-14T03:21:47.070Z,99.90
2018-05-14T03:24:14.059Z,99.90
2018-05-14T03:26:40.278Z,99.90
2018-05-14T03:29:06.500Z,99.90
2018-05-14T03:31:32.719Z,99.90
2018-05-14T03:33:58.918Z,99.90
2018-05-14T03:36:25.143Z,99.90
2018-05-14T03:38:51.349Z,99.90
2018-05-14T03:41:17.611Z,99.90
2018-05-14T03:43:44.559Z,99.90
2018-05-14T03:46:11.511Z,99.90
2018-05-14T03:48:38.442Z,99.90
2018-05-14T03:51:04.666Z,99.90
2018-05-14T03:53:30.869Z,99.90
2018-05-14T03:55:57.092Z,99.90
2018-05-14T03:58:35.701Z,99.90
2018-05-14T04:01:14.823Z,99.90
2018-05-14T04:03:53.423Z,99.90
2018-05-14T04:06:32.306Z,99.90
2018-05-14T04:08:58.504Z,99.90
2018-05-14T04:11:24.703Z,99.90
2018-05-14T04:13:51.668Z,99.90
2018-05-14T04:16:18.686Z,99.90
2018-05-14T04:18:45.642Z,99.90
2018-05-14T04:21:12.671Z,99.90
2018-05-14T04:23:38.831Z,99.90
2018-05-14T04:26:05.027Z,99.90
2018-05-14T04:28:32.731Z,99.90
2018-05-14T04:30:58.947Z,99.90
2018-05-14T04:33:25.241Z,99.90
2018-05-14T04:35:51.394Z,99.90
2018-05-14T04:38:18.357Z,99.90
2018-05-14T04:40:44.557Z,99.90
2018-05-14T04:43:10.774Z,99.90
2018-05-14T04:45:36.973Z,99.90
2018-05-14T04:48:10.319Z,99.90
2018-05-14T04:50:37.255Z,99.90
2018-05-14T04:53:04.375Z,99.90
2018-05-14T04:55:30.584Z,99.90
2018-05-14T04:57:56.786Z,99.90
2018-05-14T05:00:23.024Z,99.90
2018-05-14T05:02:49.225Z,99.90
2018-05-14T05:05:19.039Z,99.90
2018-05-14T05:07:45.985Z,99.90
2018-05-14T05:10:12.951Z,99.90
2018-05-14T05:12:39.148Z,99.90
2018-05-14T05:15:06.124Z,99.90
2018-05-14T05:17:32.325Z,99.90
2018-05-14T05:19:59.355Z,99.90
2018-05-14T05:22:25.566Z,99.90
2018-05-14T05:24:51.799Z,99.90
2018-05-14T05:27:17.995Z,99.90
2018-05-14T05:29:44.219Z,99.90
2018-05-14T05:32:10.443Z,99.90
2018-05-14T05:34:36.729Z,99.90
2018-05-14T05:37:02.965Z,99.90
2018-05-14T05:39:29.468Z,99.90
2018-05-14T05:41:55.683Z,99.90
2018-05-14T05:44:21.874Z,99.90
2018-05-14T05:46:48.842Z,99.90
2018-05-14T05:49:15.775Z,99.90
2018-05-14T05:51:42.770Z,99.90
2018-05-14T05:54:08.971Z,99.90
2018-05-14T05:56:35.188Z,99.90
2018-05-14T05:59:02.123Z,99.90
2018-05-14T06:01:29.110Z,99.90
2018-05-14T06:03:55.375Z,99.90
2018-05-14T06:06:21.595Z,99.90
2018-05-14T06:08:47.798Z,99.90
2018-05-14T06:11:14.023Z,99.90
2018-05-14T06:13:40.211Z,99.90
2018-05-14T06:16:07.171Z,99.90
2018-05-14T06:18:34.115Z,99.90
2018-05-14T06:21:01.075Z,99.90
2018-05-14T06:23:27.271Z,99.90
2018-05-14T06:25:53.490Z,99.70
2018-05-14T06:28:19.682Z,98.90
2018-05-14T06:30:48.064Z,97.90
2018-05-14T06:33:16.698Z,95.20
2018-05-14T06:35:43.726Z,95.40
2018-05-14T06:38:10.622Z,93.90
2018-05-14T06:40:37.809Z,93.90
2018-05-14T06:43:04.027Z,93.70
2018-05-14T06:45:30.796Z,92.80
2018-05-14T06:47:57.255Z,93.40
2018-05-14T06:50:24.249Z,92.60
2018-05-14T06:52:50.487Z,92.60
2018-05-14T06:55:16.687Z,91.50
2018-05-14T06:57:43.055Z,91.80
2018-05-14T07:00:09.252Z,91.90
2018-05-14T07:02:35.451Z,90.90
2018-05-14T07:05:02.413Z,91.40
2018-05-14T07:07:28.675Z,91.40
2018-05-14T07:09:54.893Z,91.50
2018-05-14T07:12:21.096Z,91.20
2018-05-14T07:14:47.311Z,90.60
2018-05-14T07:17:14.451Z,90.20
2018-05-14T07:19:40.663Z,90.10
2018-05-14T07:22:06.863Z,88.10
2018-05-14T07:24:33.111Z,87.40
2018-05-14T07:26:59.311Z,87.00
2018-05-14T07:29:25.572Z,83.10
2018-05-14T07:31:51.782Z,84.60
2018-05-14T07:34:17.998Z,83.10
2018-05-14T07:36:44.200Z,81.50
2018-05-14T07:39:11.159Z,80.00
2018-05-14T07:41:37.355Z,80.00
2018-05-14T07:44:04.321Z,75.30
2018-05-14T07:46:30.577Z,75.30
2018-05-14T07:48:57.017Z,76.50
2018-05-14T07:51:23.231Z,75.70
2018-05-14T07:53:49.427Z,75.80
2018-05-14T07:56:16.782Z,74.00
2018-05-14T07:58:43.715Z,72.30
2018-05-14T08:01:09.939Z,72.30
2018-05-14T08:03:36.894Z,71.40
2018-05-14T08:06:04.571Z,69.90
2018-05-14T08:08:31.534Z,70.40
2018-05-14T08:10:57.734Z,70.40
2018-05-14T08:13:23.928Z,68.00
2018-05-14T08:15:50.156Z,69.80
2018-05-14T08:18:16.363Z,69.10
2018-05-14T08:20:43.587Z,68.30
2018-05-14T08:23:10.526Z,67.10
2018-05-14T08:25:38.259Z,66.30
2018-05-14T08:28:04.451Z,66.30
2018-05-14T08:30:30.695Z,66.70
2018-05-14T08:32:56.924Z,65.00
2018-05-14T08:35:23.183Z,67.20
2018-05-14T08:37:49.375Z,63.70
2018-05-14T08:40:15.603Z,64.90
2018-05-14T08:42:41.799Z,63.10
2018-05-14T08:45:08.764Z,65.50
2018-05-14T08:47:35.218Z,65.50
2018-05-14T08:50:01.439Z,65.10
2018-05-14T08:52:27.639Z,65.40
2018-05-14T08:54:54.599Z,66.70
2018-05-14T08:57:20.794Z,66.50
2018-05-14T08:59:47.014Z,66.00
2018-05-14T09:02:13.206Z,62.90
2018-05-14T09:04:39.435Z,61.30
2018-05-14T09:07:05.630Z,61.40
2018-05-14T09:09:31.862Z,59.90
2018-05-14T09:11:58.064Z,59.10
2018-05-14T09:14:24.288Z,57.80
2018-05-14T09:16:50.487Z,58.00
2018-05-14T09:19:16.746Z,61.90
2018-05-14T09:21:42.938Z,61.10
2018-05-14T09:24:09.167Z,60.00
2018-05-14T09:26:35.430Z,58.40
2018-05-14T09:29:01.661Z,58.30
2018-05-14T09:31:27.883Z,56.10
2018-05-14T09:33:54.247Z,56.20
2018-05-14T09:36:21.179Z,53.90
2018-05-14T09:38:47.398Z,53.80
2018-05-14T09:41:14.339Z,55.40
2018-05-14T09:43:40.578Z,55.40
2018-05-14T09:46:06.789Z,53.20
2018-05-14T09:48:33.015Z,52.90
2018-05-14T09:50:59.215Z,52.60
2018-05-14T09:53:25.434Z,53.20
2018-05-14T09:55:51.640Z,53.70
2018-05-14T09:58:18.632Z,52.00
2018-05-14T10:00:44.836Z,51.90
2018-05-14T10:03:11.119Z,51.40
2018-05-14T10:05:37.428Z,51.50
2018-05-14T10:08:03.655Z,51.60
2018-05-14T10:10:29.887Z,51.00
2018-05-14T10:12:57.807Z,50.20
2018-05-14T10:15:23.964Z,49.50
2018-05-14T10:17:50.190Z,48.30
2018-05-14T10:20:16.408Z,47.80
2018-05-14T10:22:42.631Z,47.40
2018-05-14T10:25:08.838Z,46.00
2018-05-14T10:27:35.799Z,46.80
2018-05-14T10:30:02.052Z,46.90
2018-05-14T10:32:28.751Z,46.50
2018-05-14T10:34:55.727Z,46.20
2018-05-14T10:37:21.936Z,46.80
2018-05-14T10:39:48.899Z,46.40
2018-05-14T10:42:15.091Z,46.40
2018-05-14T10:44:41.315Z,46.70
2018-05-14T10:47:08.259Z,45.10
2018-05-14T10:49:34.482Z,45.10
2018-05-14T10:52:00.696Z,44.70
2018-05-14T10:54:26.928Z,44.10
2018-05-14T10:56:53.120Z,45.70
2018-05-14T10:59:19.566Z,45.10
2018-05-14T11:01:45.790Z,44.80
2018-05-14T11:04:12.079Z,45.80
2018-05-14T11:06:39.020Z,43.70
2018-05-14T11:09:05.246Z,43.70
2018-05-14T11:11:31.451Z,43.80
2018-05-14T11:13:57.674Z,43.70
2018-05-14T11:16:23.875Z,42.80
2018-05-14T11:18:50.181Z,43.40
2018-05-14T11:21:16.331Z,43.40
2018-05-14T11:23:42.542Z,41.60
2018-05-14T11:26:09.483Z,42.40
2018-05-14T11:28:36.455Z,42.80
2018-05-14T11:31:02.682Z,42.80
2018-05-14T11:33:28.900Z,42.90
2018-05-14T11:35:55.091Z,45.00
2018-05-14T11:38:21.310Z,43.20
2018-05-14T11:40:47.742Z,42.60
2018-05-14T11:43:14.738Z,42.90
2018-05-14T11:45:41.195Z,42.90
2018-05-14T11:48:07.483Z,43.00
2018-05-14T11:50:34.423Z,42.00
2018-05-14T11:53:01.384Z,40.40
2018-05-14T11:55:27.608Z,40.90
2018-05-14T11:57:54.575Z,38.30
2018-05-14T12:00:20.766Z,38.30
2018-05-14T12:02:46.989Z,38.00
2018-05-14T12:05:13.195Z,38.70
2018-05-14T12:07:39.418Z,37.50
2018-05-14T12:10:05.625Z,37.90
2018-05-14T12:12:31.922Z,36.20
2018-05-14T12:14:59.559Z,38.00
2018-05-14T12:17:25.783Z,38.00
2018-05-14T12:19:52.721Z,38.20
2018-05-14T12:22:18.942Z,38.10
2018-05-14T12:24:45.163Z,38.60
2018-05-14T12:27:11.387Z,38.60
2018-05-14T12:29:37.585Z,39.40
2018-05-14T12:32:04.669Z,38.70
2018-05-14T12:34:30.803Z,38.70
2018-05-14T12:36:57.063Z,39.20
2018-05-14T12:39:23.259Z,38.60
2018-05-14T12:41:49.454Z,38.00
2018-05-14T12:44:15.679Z,39.20
2018-05-14T12:46:41.874Z,37.30
2018-05-14T12:49:08.100Z,38.30
2018-05-14T12:51:34.303Z,37.60
2018-05-14T12:54:00.527Z,37.90
2018-05-14T12:56:26.756Z,36.70
2018-05-14T12:58:52.951Z,36.50
2018-05-14T13:01:19.334Z,36.90
2018-05-14T13:03:45.533Z,37.40
2018-05-14T13:06:12.056Z,36.70
2018-05-14T13:08:38.315Z,36.70
2018-05-14T13:11:04.591Z,36.00
2018-05-14T13:13:31.595Z,36.80
2018-05-14T13:15:57.811Z,36.80
2018-05-14T13:18:24.090Z,37.50
2018-05-14T13:20:51.041Z,37.50
2018-05-14T13:23:18.040Z,38.20
2018-05-14T13:25:44.258Z,37.50
2018-05-14T13:28:10.486Z,36.00
2018-05-14T13:30:36.711Z,36.80
2018-05-14T13:33:02.951Z,37.40
2018-05-14T13:35:29.174Z,35.80
2018-05-14T13:37:55.490Z,37.30
2018-05-14T13:40:21.619Z,36.90
2018-05-14T13:42:47.895Z,35.90
2018-05-14T13:45:14.067Z,35.40
2018-05-14T13:47:40.298Z,34.70
2018-05-14T13:50:06.539Z,33.80
2018-05-14T13:52:32.755Z,33.70
2018-05-14T13:54:58.965Z,33.50
2018-05-14T13:57:26.145Z,32.30
2018-05-14T13:59:52.749Z,32.80
2018-05-14T14:02:19.694Z,34.30
2018-05-14T14:04:45.914Z,34.30
2018-05-14T14:07:12.115Z,35.00
2018-05-14T14:09:38.367Z,36.00
2018-05-14T14:12:04.569Z,35.50
2018-05-14T14:14:30.790Z,34.90
2018-05-14T14:16:57.004Z,35.30
2018-05-14T14:19:23.243Z,34.40
2018-05-14T14:21:49.443Z,34.20
2018-05-14T14:24:16.426Z,34.20
2018-05-14T14:26:42.635Z,34.20
2018-05-14T14:29:08.855Z,34.50
2018-05-14T14:31:35.082Z,32.50
2018-05-14T14:34:01.303Z,32.30
2018-05-14T14:36:28.368Z,32.50
2018-05-14T14:38:54.543Z,32.40
2018-05-14T14:41:20.743Z,33.50
2018-05-14T14:43:46.966Z,32.70
2018-05-14T14:46:13.155Z,33.40
2018-05-14T14:48:40.121Z,34.50
2018-05-14T14:51:06.338Z,34.50
2018-05-14T14:53:33.356Z,35.30
2018-05-14T14:55:59.528Z,35.30
2018-05-14T14:58:25.819Z,35.40
2018-05-14T15:00:51.974Z,35.10
2018-05-14T15:03:18.929Z,35.50
2018-05-14T15:05:45.175Z,35.50
2018-05-14T15:08:11.367Z,36.30
2018-05-14T15:10:38.327Z,35.40
2018-05-14T15:13:05.262Z,35.50
2018-05-14T15:15:32.223Z,36.30
2018-05-14T15:17:58.430Z,36.30
2018-05-14T15:20:24.652Z,37.00
2018-05-14T15:22:52.512Z,37.50
2018-05-14T15:25:19.812Z,38.60
2018-05-14T15:27:46.003Z,38.60
2018-05-14T15:30:15.615Z,39.20
2018-05-14T15:32:41.835Z,38.10
2018-05-14T15:35:08.060Z,38.30
2018-05-14T15:37:34.256Z,38.60
2018-05-14T15:40:00.966Z,37.80
2018-05-14T15:42:27.168Z,39.00
2018-05-14T15:44:53.386Z,38.50
2018-05-14T15:47:19.575Z,38.30
2018-05-14T15:49:45.790Z,39.10
2018-05-14T15:52:12.056Z,39.40
2018-05-14T15:54:38.283Z,39.80
2018-05-14T15:57:04.476Z,38.80
2018-05-14T15:59:30.699Z,39.90
2018-05-14T16:01:56.945Z,39.10
2018-05-14T16:04:23.180Z,39.00
2018-05-14T16:06:49.444Z,39.00
2018-05-14T16:09:15.639Z,39.50
2018-05-14T16:11:41.859Z,39.90
2018-05-14T16:14:08.051Z,40.10
2018-05-14T16:16:35.012Z,39.60
2018-05-14T16:19:01.211Z,39.60
2018-05-14T16:21:27.426Z,40.40
2018-05-14T16:23:53.618Z,40.10
2018-05-14T16:26:19.921Z,40.40
2018-05-14T16:28:46.067Z,40.30
2018-05-14T16:31:12.318Z,40.60
2018-05-14T16:33:38.510Z,40.50
2018-05-14T16:36:05.476Z,42.00
2018-05-14T16:38:31.667Z,42.00
2018-05-14T16:40:58.635Z,42.90
2018-05-14T16:43:25.573Z,42.60
2018-05-14T16:45:52.458Z,42.40
2018-05-14T16:48:18.685Z,42.40
2018-05-14T16:50:45.857Z,43.50
2018-05-14T16:53:12.074Z,43.60
2018-05-14T16:55:38.270Z,44.40
2018-05-14T16:58:04.494Z,43.80
2018-05-14T17:00:30.695Z,44.50
2018-05-14T17:02:57.004Z,44.50
2018-05-14T17:05:23.199Z,44.10
2018-05-14T17:07:49.415Z,44.00
2018-05-14T17:10:15.614Z,44.20
2018-05-14T17:12:41.830Z,44.50
2018-05-14T17:15:08.026Z,44.60
2018-05-14T17:17:34.247Z,44.40
2018-05-14T17:20:00.446Z,44.00
2018-05-14T17:22:27.462Z,44.30
2018-05-14T17:24:53.664Z,44.20
2018-05-14T17:27:19.895Z,44.60
2018-05-14T17:29:46.155Z,44.70
2018-05-14T17:32:13.770Z,44.70
2018-05-14T17:34:39.971Z,45.00
2018-05-14T17:37:06.906Z,44.90
2018-05-14T17:39:33.883Z,44.40
2018-05-14T17:42:00.079Z,44.30
2018-05-14T17:44:34.087Z,45.10
2018-05-14T17:47:01.100Z,45.80
2018-05-14T17:49:27.270Z,45.70
2018-05-14T17:51:54.211Z,46.80
2018-05-14T17:54:21.184Z,46.60
2018-05-14T17:56:47.380Z,46.50
2018-05-14T17:59:14.349Z,47.80
2018-05-14T18:01:41.296Z,47.60
2018-05-14T18:04:07.614Z,47.60
2018-05-14T18:06:34.555Z,48.70
2018-05-14T18:09:01.520Z,48.30
2018-05-14T18:11:28.800Z,48.20
2018-05-14T18:13:55.143Z,49.20
2018-05-14T18:16:21.347Z,48.20
2018-05-14T18:18:47.572Z,48.30
2018-05-14T18:21:14.608Z,48.50
2018-05-14T18:23:45.899Z,48.10
2018-05-14T18:26:16.172Z,48.20
2018-05-14T18:28:43.199Z,48.60
2018-05-14T18:31:15.590Z,48.60
2018-05-14T18:33:42.571Z,49.00
2018-05-14T18:36:08.766Z,49.00
2018-05-14T18:38:35.723Z,49.60
2018-05-14T18:41:01.919Z,49.60
2018-05-14T18:43:28.150Z,49.80
2018-05-14T18:45:54.410Z,50.00
2018-05-14T18:48:21.371Z,50.60
2018-05-14T18:50:47.570Z,50.60
2018-05-14T18:53:14.551Z,51.10
2018-05-14T18:55:40.742Z,51.00
2018-05-14T18:58:07.683Z,51.80
2018-05-14T19:00:34.647Z,52.00
2018-05-14T19:03:01.584Z,52.20
2018-05-14T19:05:28.557Z,52.40
2018-05-14T19:07:54.759Z,52.40
2018-05-14T19:10:27.927Z,52.80
2018-05-14T19:12:54.128Z,53.30
2018-05-14T19:15:26.390Z,53.10
2018-05-14T19:17:58.702Z,53.50
2018-05-14T19:20:25.682Z,54.10
2018-05-14T19:22:57.995Z,54.10
2018-05-14T19:25:24.225Z,54.50
2018-05-14T19:27:56.500Z,54.90
2018-05-14T19:30:22.752Z,55.30
2018-05-14T19:32:48.976Z,56.10
2018-05-14T19:35:22.679Z,56.50
2018-05-14T19:37:49.622Z,56.40
2018-05-14T19:40:22.117Z,56.40
2018-05-14T19:42:49.059Z,57.00
2018-05-14T19:45:16.014Z,58.00
2018-05-14T19:47:42.960Z,57.40
2018-05-14T19:50:10.023Z,57.60
2018-05-14T19:52:36.167Z,57.60
2018-05-14T19:55:02.398Z,57.60
2018-05-14T19:57:28.598Z,57.70
2018-05-14T19:59:55.567Z,58.00
2018-05-14T20:02:22.448Z,58.00
2018-05-14T20:04:49.462Z,58.20
2018-05-14T20:07:15.663Z,58.20
2018-05-14T20:09:42.622Z,58.30
2018-05-14T20:12:08.818Z,58.30
2018-05-14T20:14:35.792Z,58.50
2018-05-14T20:17:04.317Z,58.90
2018-05-14T20:19:30.840Z,58.90
2018-05-14T20:21:57.337Z,58.90
2018-05-14T20:24:23.789Z,58.80
2018-05-14T20:26:51.333Z,59.10
2018-05-14T20:29:18.270Z,59.20
2018-05-14T20:31:45.264Z,59.10
2018-05-14T20:34:11.464Z,59.10
2018-05-14T20:36:37.678Z,59.30
2018-05-14T20:39:04.657Z,59.60
2018-05-14T20:41:30.883Z,59.60
2018-05-14T20:43:59.202Z,59.60
2018-05-14T20:46:25.423Z,59.70
2018-05-14T20:48:51.615Z,60.40
2018-05-14T20:51:17.842Z,60.20
2018-05-14T20:53:44.039Z,59.90
2018-05-14T20:56:11.007Z,60.30
2018-05-14T20:58:37.207Z,60.20
2018-05-14T21:01:04.908Z,61.00
2018-05-14T21:03:31.112Z,61.00
2018-05-14T21:05:58.075Z,61.10
2018-05-14T21:08:24.270Z,61.10
2018-05-14T21:10:50.888Z,61.50
2018-05-14T21:13:17.867Z,62.00
2018-05-14T21:15:44.806Z,62.10
2018-05-14T21:18:11.759Z,62.40
2018-05-14T21:20:38.698Z,62.50
2018-05-14T21:23:04.917Z,62.50
2018-05-14T21:25:31.110Z,63.00
2018-05-14T21:27:57.330Z,63.00
2018-05-14T21:30:23.563Z,63.30
2018-05-14T21:32:49.787Z,63.50
2018-05-14T21:35:16.041Z,63.30
2018-05-14T21:37:42.257Z,63.50
2018-05-14T21:40:08.451Z,63.50
2018-05-14T21:42:34.679Z,63.70
2018-05-14T21:45:01.654Z,64.00
2018-05-14T21:47:27.867Z,64.00
2018-05-14T21:49:54.058Z,64.30
2018-05-14T21:52:21.023Z,65.80
2018-05-14T21:54:47.959Z,65.30
2018-05-14T21:57:14.987Z,65.70
2018-05-14T21:59:41.208Z,65.60
2018-05-14T22:02:08.263Z,66.10
2018-05-14T22:04:34.463Z,66.10
2018-05-14T22:07:00.654Z,66.50
2018-05-14T22:09:27.616Z,67.20
2018-05-14T22:11:53.807Z,67.20
2018-05-14T22:14:20.027Z,67.00
2018-05-14T22:16:46.307Z,67.70
2018-05-14T22:19:12.737Z,67.50
2018-05-14T22:21:38.943Z,67.80
2018-05-14T22:24:05.911Z,69.00
2018-05-14T22:26:32.174Z,68.90
2018-05-14T22:28:58.359Z,69.30
2018-05-14T22:31:24.587Z,69.80
2018-05-14T22:33:50.849Z,70.40
2018-05-14T22:36:17.047Z,70.80
2018-05-14T22:38:43.266Z,71.20
2018-05-14T22:41:10.206Z,72.00
2018-05-14T22:43:37.174Z,72.80
2018-05-14T22:46:03.375Z,72.80
2018-05-14T22:48:30.347Z,73.60
2018-05-14T22:50:56.550Z,73.60
2018-05-14T22:53:23.511Z,74.10
2018-05-14T22:55:50.447Z,74.10
2018-05-14T22:58:17.413Z,74.40
2018-05-14T23:00:43.614Z,74.30
2018-05-14T23:03:10.583Z,75.20
2018-05-14T23:05:36.775Z,75.20
2018-05-14T23:08:02.999Z,75.60
2018-05-14T23:10:29.194Z,75.50
2018-05-14T23:12:55.430Z,75.60
2018-05-14T23:15:21.627Z,76.00
2018-05-14T23:17:47.851Z,76.10
2018-05-14T23:20:14.787Z,78.70
2018-05-14T23:22:41.754Z,78.70
2018-05-14T23:25:07.967Z,78.70
2018-05-14T23:27:34.946Z,81.20
2018-05-14T23:30:01.138Z,81.90
2018-05-14T23:32:28.264Z,79.70
2018-05-14T23:34:54.791Z,79.60
2018-05-14T23:37:21.163Z,80.00
2018-05-14T23:39:48.200Z,80.40
2018-05-14T23:42:15.144Z,80.50
2018-05-14T23:44:42.103Z,81.40
2018-05-14T23:47:09.036Z,81.50
2018-05-14T23:49:36.073Z,81.80
2018-05-14T23:52:02.267Z,81.60
2018-05-14T23:54:28.515Z,82.40
2018-05-14T23:56:54.715Z,82.20
2018-05-14T23:59:20.946Z,83.40
